createdAt,value
2022-11-29T00:01:13.264Z,54.22
2022-11-29T00:03:40.243Z,52.53
2022-11-29T00:06:09.562Z,51.38
2022-11-29T00:08:36.760Z,43.88
2022-11-29T00:11:06.206Z,45.07
2022-11-29T00:13:33.188Z,39.85
2022-11-29T00:16:05.065Z,33.90
2022-11-29T00:18:32.394Z,33.27
2022-11-29T00:20:59.090Z,31.42
2022-11-29T00:23:26.542Z,29.13
2022-11-29T00:25:53.371Z,26.23
2022-11-29T00:28:20.147Z,25.67
2022-11-29T00:30:47.341Z,22.40
2022-11-29T00:33:14.080Z,18.77
2022-11-29T00:35:40.653Z,17.58
2022-11-29T00:38:07.316Z,15.75
2022-11-29T00:40:33.871Z,15.27
2022-11-29T00:43:00.626Z,13.83
2022-11-29T00:48:08.013Z,11.48
2022-11-29T00:50:34.783Z,10.77
2022-11-29T00:53:01.487Z,9.40
2022-11-29T00:55:28.088Z,8.32
2022-11-29T00:57:54.737Z,7.90
2022-11-29T01:00:21.450Z,7.85
2022-11-29T01:02:48.241Z,7.90
2022-11-29T01:05:15.021Z,7.57
2022-11-29T01:07:41.634Z,7.57
2022-11-29T01:10:08.883Z,6.97
2022-11-29T01:12:39.908Z,6.80
2022-11-29T01:15:11.489Z,6.30
2022-11-29T01:17:39.774Z,6.95
2022-11-29T01:20:10.267Z,6.80
2022-11-29T01:22:38.570Z,6.80
2022-11-29T01:25:07.441Z,6.63
2022-11-29T01:27:34.637Z,7.70
2022-11-29T01:30:01.206Z,7.57
2022-11-29T01:32:27.860Z,6.78
2022-11-29T01:34:54.499Z,7.20
2022-11-29T01:37:21.104Z,7.40
2022-11-29T01:39:50.792Z,7.43
2022-11-29T01:42:17.504Z,7.60
2022-11-29T01:44:50.197Z,7.15
2022-11-29T01:47:18.663Z,7.70
2022-11-29T01:49:48.157Z,7.40
2022-11-29T01:52:21.049Z,7.22
2022-11-29T01:54:56.120Z,6.97
2022-11-29T01:57:23.243Z,7.18
2022-11-29T01:59:54.140Z,7.47
2022-11-29T02:02:28.253Z,7.10
2022-11-29T02:04:58.406Z,7.53
2022-11-29T02:07:25.168Z,7.25
2022-11-29T02:09:51.866Z,7.30
2022-11-29T02:12:39.625Z,6.65
2022-11-29T02:15:18.422Z,6.30
2022-11-29T02:18:14.736Z,6.25
2022-11-29T02:20:57.320Z,6.03
2022-11-29T02:23:48.498Z,6.20
2022-11-29T02:26:21.753Z,6.53
2022-11-29T02:29:20.934Z,6.38
2022-11-29T02:32:09.384Z,6.10
2022-11-29T02:34:52.125Z,6.13
2022-11-29T02:37:22.634Z,5.93
2022-11-29T02:40:07.038Z,6.82
2022-11-29T02:42:54.094Z,6.53
2022-11-29T02:45:35.873Z,6.65
2022-11-29T02:48:21.230Z,6.72
2022-11-29T02:50:59.021Z,7.35
2022-11-29T02:53:49.974Z,6.43
2022-11-29T02:56:35.170Z,6.18
2022-11-29T02:59:20.090Z,6.37
2022-11-29T03:02:02.135Z,6.80
2022-11-29T03:04:37.868Z,6.72
2022-11-29T03:07:34.082Z,6.40
2022-11-29T03:10:31.766Z,6.32
2022-11-29T03:12:59.859Z,6.10
2022-11-29T03:15:38.761Z,6.80
2022-11-29T03:18:08.406Z,7.03
2022-11-29T03:20:57.864Z,7.07
2022-11-29T03:23:33.340Z,7.45
2022-11-29T03:26:32.073Z,7.80
2022-11-29T03:29:11.660Z,8.13
2022-11-29T03:31:49.997Z,8.38
2022-11-29T03:34:26.191Z,9.07
2022-11-29T03:37:04.137Z,8.57
2022-11-29T03:39:41.563Z,8.20
2022-11-29T03:42:14.185Z,8.60
2022-11-29T03:45:03.041Z,8.53
2022-11-29T03:47:37.962Z,8.27
2022-11-29T03:50:40.464Z,8.32
2022-11-29T03:53:33.797Z,8.80
2022-11-29T03:56:03.917Z,8.43
2022-11-29T03:59:00.729Z,8.50
2022-11-29T04:01:36.474Z,8.83
2022-11-29T04:04:15.954Z,9.40
2022-11-29T04:07:00.930Z,9.18
2022-11-29T04:09:36.605Z,10.00
2022-11-29T04:14:01.561Z,10.40
2022-11-29T04:16:25.548Z,10.88
2022-11-29T04:19:29.459Z,11.48
2022-11-29T04:22:14.535Z,13.20
2022-11-29T04:25:15.229Z,14.65
2022-11-29T04:27:49.372Z,14.63
2022-11-29T04:30:21.630Z,17.50
2022-11-29T04:33:25.719Z,17.33
2022-11-29T04:36:33.552Z,17.73
2022-11-29T04:39:13.530Z,19.40
2022-11-29T04:42:05.032Z,23.10
2022-11-29T04:44:55.676Z,26.10
2022-11-29T04:47:49.112Z,27.05
2022-11-29T04:50:38.914Z,34.67
2022-11-29T04:53:27.105Z,35.30
2022-11-29T04:56:23.709Z,42.37
2022-11-29T04:59:26.264Z,52.20
2022-11-29T05:02:05.006Z,79.63
2022-11-29T05:04:40.604Z,96.20
2022-11-29T05:07:52.231Z,135.32
2022-11-29T05:10:39.515Z,179.48
2022-11-29T05:13:30.934Z,213.25
2022-11-29T05:16:19.967Z,254.10
2022-11-29T05:19:17.432Z,276.47
2022-11-29T05:22:39.216Z,288.83
2022-11-29T05:25:30.485Z,298.00
2022-11-29T05:28:10.367Z,319.02
2022-11-29T05:30:55.919Z,312.27
2022-11-29T05:33:55.359Z,320.08
2022-11-29T05:36:42.241Z,314.30
2022-11-29T05:39:50.027Z,310.70
2022-11-29T05:42:46.774Z,306.33
2022-11-29T05:45:37.052Z,320.90
2022-11-29T05:48:21.901Z,321.90
2022-11-29T05:51:23.557Z,332.60
2022-11-29T05:54:13.338Z,338.98
2022-11-29T05:56:58.214Z,353.60
2022-11-29T05:59:28.677Z,358.43
2022-11-29T06:02:20.391Z,369.25
2022-11-29T06:05:13.108Z,380.15
2022-11-29T06:14:02.942Z,393.65
2022-11-29T06:17:25.957Z,384.67
2022-11-29T06:20:05.042Z,385.13
2022-11-29T06:22:44.130Z,385.63
2022-11-29T06:25:39.288Z,388.17
2022-11-29T06:28:27.773Z,371.42
2022-11-29T06:31:00.985Z,363.38
2022-11-29T06:33:56.349Z,364.83
2022-11-29T06:36:25.640Z,364.02
2022-11-29T06:38:52.366Z,367.02
2022-11-29T06:41:22.204Z,368.83
2022-11-29T06:43:49.712Z,394.45
2022-11-29T06:46:31.956Z,379.80
2022-11-29T06:49:17.225Z,367.73
2022-11-29T06:52:02.916Z,349.75
2022-11-29T06:55:06.030Z,339.45
2022-11-29T06:57:51.022Z,322.42
2022-11-29T07:00:24.071Z,304.80
2022-11-29T07:03:15.526Z,285.70
2022-11-29T07:05:42.658Z,283.38
2022-11-29T07:08:14.990Z,280.02
2022-11-29T07:10:43.021Z,281.35
2022-11-29T07:13:13.926Z,272.03
2022-11-29T07:16:12.575Z,266.85
2022-11-29T07:18:47.703Z,270.43
2022-11-29T07:21:33.301Z,253.07
2022-11-29T07:24:23.634Z,247.70
2022-11-29T07:27:01.277Z,253.73
2022-11-29T07:29:53.419Z,251.77
2022-11-29T07:32:34.402Z,262.30
2022-11-29T07:35:24.200Z,263.63
2022-11-29T07:37:57.937Z,269.17
2022-11-29T07:40:37.931Z,266.92
2022-11-29T07:43:14.423Z,266.73
2022-11-29T07:45:41.200Z,278.97
2022-11-29T07:48:10.989Z,271.67
2022-11-29T07:50:41.281Z,277.33
2022-11-29T07:53:20.515Z,275.75
2022-11-29T07:55:48.392Z,269.47
2022-11-29T07:58:17.420Z,264.03
2022-11-29T08:00:46.859Z,265.15
2022-11-29T08:03:13.672Z,266.30
2022-11-29T08:05:40.791Z,269.23
2022-11-29T08:08:07.727Z,263.60
2022-11-29T08:10:35.688Z,260.52
2022-11-29T08:13:02.774Z,271.05
2022-11-29T08:15:29.715Z,267.48
2022-11-29T08:17:56.384Z,269.50
2022-11-29T08:20:23.160Z,269.40
2022-11-29T08:22:59.032Z,265.00
2022-11-29T08:25:26.969Z,279.23
2022-11-29T08:27:54.692Z,268.27
2022-11-29T08:30:22.466Z,278.23
2022-11-29T08:32:52.034Z,279.07
2022-11-29T08:35:22.583Z,281.83
2022-11-29T08:37:49.720Z,277.30
2022-11-29T08:40:17.447Z,277.35
2022-11-29T08:42:44.178Z,288.65
2022-11-29T08:45:11.915Z,285.55
2022-11-29T08:47:39.089Z,295.85
2022-11-29T08:50:10.123Z,298.83
2022-11-29T08:52:59.361Z,286.48
2022-11-29T08:55:30.681Z,290.67
2022-11-29T08:58:06.783Z,290.25
2022-11-29T09:00:34.367Z,294.17
2022-11-29T09:03:25.014Z,302.45
2022-11-29T09:05:52.512Z,301.67
2022-11-29T09:08:19.338Z,299.97
2022-11-29T09:10:47.408Z,302.70
2022-11-29T09:13:14.160Z,293.20
2022-11-29T09:15:43.322Z,292.98
2022-11-29T09:18:09.943Z,288.85
2022-11-29T09:20:36.832Z,289.83
2022-11-29T09:23:03.975Z,291.23
2022-11-29T09:25:30.548Z,295.00
2022-11-29T09:28:02.833Z,304.33
2022-11-29T09:30:31.587Z,308.17
2022-11-29T09:33:05.069Z,310.85
2022-11-29T09:35:31.872Z,305.10
2022-11-29T09:37:58.554Z,310.45
2022-11-29T09:40:33.893Z,307.30
2022-11-29T09:43:04.031Z,307.17
2022-11-29T09:45:36.525Z,303.08
2022-11-29T09:48:53.113Z,304.00
2022-11-29T09:52:07.440Z,302.00
2022-11-29T09:54:33.978Z,306.50
2022-11-29T09:57:10.330Z,300.35
2022-11-29T09:59:43.610Z,301.48
2022-11-29T10:02:42.199Z,308.58
2022-11-29T10:05:17.054Z,298.85
2022-11-29T10:07:56.109Z,300.33
2022-11-29T10:10:31.295Z,297.43
2022-11-29T10:13:23.501Z,285.75
2022-11-29T10:15:56.282Z,262.25
2022-11-29T10:18:28.872Z,255.77
2022-11-29T10:20:59.855Z,238.73
2022-11-29T10:23:33.250Z,237.43
2022-11-29T10:25:59.938Z,244.98
2022-11-29T10:28:31.575Z,233.52
2022-11-29T10:31:08.480Z,228.10
2022-11-29T10:33:41.878Z,217.52
2022-11-29T10:36:40.739Z,213.02
2022-11-29T10:39:18.838Z,219.00
2022-11-29T10:41:46.285Z,218.60
2022-11-29T10:44:14.977Z,229.65
2022-11-29T10:46:41.666Z,236.55
2022-11-29T10:49:14.943Z,252.20
2022-11-29T10:51:41.752Z,264.67
2022-11-29T10:54:35.712Z,269.30
2022-11-29T10:57:02.635Z,272.60
2022-11-29T10:59:34.912Z,282.90
2022-11-29T11:02:01.988Z,281.67
2022-11-29T11:04:37.157Z,286.42
2022-11-29T11:07:06.968Z,274.67
2022-11-29T11:09:48.610Z,244.80
2022-11-29T11:12:15.360Z,238.15
2022-11-29T11:14:43.745Z,222.98
2022-11-29T11:17:26.442Z,228.77
2022-11-29T11:19:58.469Z,223.30
2022-11-29T11:22:32.573Z,227.75
2022-11-29T11:25:06.787Z,217.20
2022-11-29T11:27:37.217Z,210.30
2022-11-29T11:30:06.293Z,198.98
2022-11-29T11:32:33.152Z,199.10
2022-11-29T11:35:02.146Z,187.93
2022-11-29T11:37:35.803Z,165.10
2022-11-29T11:40:29.220Z,144.75
2022-11-29T11:43:01.976Z,139.90
2022-11-29T11:45:33.444Z,134.32
2022-11-29T11:48:12.736Z,120.18
2022-11-29T11:50:54.299Z,103.60
2022-11-29T11:53:27.717Z,99.70
2022-11-29T11:56:02.618Z,94.60
2022-11-29T11:58:32.413Z,87.57
2022-11-29T12:01:12.414Z,72.05
2022-11-29T12:03:54.835Z,63.30
2022-11-29T12:06:59.875Z,50.58
2022-11-29T12:09:34.056Z,43.95
2022-11-29T12:12:34.685Z,41.22
2022-11-29T12:15:06.205Z,38.47
2022-11-29T12:17:50.019Z,36.33
2022-11-29T12:20:54.181Z,37.13
2022-11-29T12:23:40.873Z,36.03
2022-11-29T12:29:19.942Z,36.00
2022-11-29T12:32:10.451Z,37.15
2022-11-29T12:34:37.082Z,38.85
2022-11-29T12:37:30.027Z,39.10
2022-11-29T12:40:18.016Z,39.78
2022-11-29T12:43:15.301Z,39.03
2022-11-29T12:46:22.822Z,40.22
2022-11-29T12:49:04.285Z,37.43
2022-11-29T12:51:57.843Z,38.30
2022-11-29T12:54:55.982Z,33.25
2022-11-29T12:57:48.384Z,25.97
2022-11-29T13:00:17.717Z,21.65
2022-11-29T13:03:14.842Z,19.00
2022-11-29T13:05:55.472Z,16.63
2022-11-29T13:08:52.819Z,15.60
2022-11-29T13:11:38.157Z,13.23
2022-11-29T13:17:30.598Z,11.25
2022-11-29T13:20:13.350Z,11.15
2022-11-29T13:22:50.881Z,11.40
2022-11-29T13:25:24.441Z,10.17
2022-11-29T13:28:11.544Z,10.77
2022-11-29T13:30:39.976Z,9.93
2022-11-29T13:33:24.816Z,10.27
2022-11-29T13:36:17.112Z,11.20
2022-11-29T13:39:07.789Z,11.32
2022-11-29T13:41:54.918Z,12.23
2022-11-29T13:44:27.273Z,11.75
2022-11-29T13:47:09.080Z,11.48
2022-11-29T13:50:04.017Z,12.70
2022-11-29T13:52:44.111Z,13.98
2022-11-29T13:55:11.347Z,15.00
2022-11-29T14:00:42.560Z,16.60
2022-11-29T14:03:21.052Z,17.08
2022-11-29T14:05:50.604Z,16.17
2022-11-29T14:08:23.965Z,17.15
2022-11-29T14:10:51.854Z,19.02
2022-11-29T14:13:18.801Z,18.05
2022-11-29T14:15:56.324Z,18.60
2022-11-29T14:18:40.532Z,17.65
2022-11-29T14:21:07.660Z,17.58
2022-11-29T14:23:41.674Z,17.17
2022-11-29T14:26:08.213Z,18.65
2022-11-29T14:28:34.768Z,16.95
2022-11-29T14:31:03.369Z,19.63
2022-11-29T14:33:39.862Z,18.90
2022-11-29T14:36:17.589Z,19.88
2022-11-29T14:39:05.847Z,19.13
2022-11-29T14:42:01.152Z,20.02
2022-11-29T14:44:30.655Z,24.93
2022-11-29T14:47:15.274Z,21.30
2022-11-29T14:49:45.399Z,26.05
2022-11-29T14:52:14.663Z,31.40
2022-11-29T14:55:04.194Z,45.67
2022-11-29T14:57:58.467Z,78.30
2022-11-29T15:00:39.634Z,119.20
2022-11-29T15:03:15.846Z,135.90
2022-11-29T15:05:46.222Z,154.88
2022-11-29T15:08:42.015Z,157.23
2022-11-29T15:11:16.264Z,149.93
2022-11-29T15:13:56.248Z,146.98
2022-11-29T15:16:53.185Z,152.40
2022-11-29T15:19:35.914Z,170.38
2022-11-29T15:22:28.673Z,166.17
2022-11-29T15:25:00.303Z,177.53
2022-11-29T15:27:27.192Z,189.65
2022-11-29T15:29:53.952Z,186.10
2022-11-29T15:32:27.312Z,190.80
2022-11-29T15:34:56.451Z,186.90
2022-11-29T15:37:44.612Z,182.52
2022-11-29T15:40:14.326Z,172.10
2022-11-29T15:42:44.060Z,166.48
2022-11-29T15:45:29.028Z,154.75
2022-11-29T15:48:09.398Z,148.15
2022-11-29T15:50:36.488Z,136.45
2022-11-29T15:53:07.079Z,138.50
2022-11-29T15:55:34.185Z,136.18
2022-11-29T15:58:08.555Z,148.20
2022-11-29T16:00:36.529Z,149.98
2022-11-29T16:03:05.855Z,151.30
2022-11-29T16:05:35.740Z,161.77
2022-11-29T16:08:14.982Z,157.40
2022-11-29T16:10:49.265Z,165.60
2022-11-29T16:13:31.753Z,165.18
2022-11-29T16:16:17.598Z,174.45
2022-11-29T16:18:46.256Z,176.27
2022-11-29T16:21:22.991Z,194.30
2022-11-29T16:23:49.788Z,202.82
2022-11-29T16:26:39.107Z,216.30
2022-11-29T16:29:15.565Z,221.90
2022-11-29T16:31:42.230Z,221.70
2022-11-29T16:34:17.734Z,213.90
2022-11-29T16:36:44.342Z,216.82
2022-11-29T16:39:22.821Z,214.27
2022-11-29T16:42:17.400Z,216.23
2022-11-29T16:44:49.102Z,217.15
2022-11-29T16:47:21.594Z,223.65
2022-11-29T16:50:16.413Z,216.38
2022-11-29T16:52:43.590Z,221.20
2022-11-29T16:55:10.304Z,220.70
2022-11-29T16:57:37.600Z,225.63
2022-11-29T17:00:30.366Z,206.38
2022-11-29T17:02:57.690Z,194.52
2022-11-29T17:05:24.374Z,186.73
2022-11-29T17:07:51.532Z,173.95
2022-11-29T17:10:22.735Z,167.82
2022-11-29T17:12:50.188Z,166.13
2022-11-29T17:15:17.460Z,162.32
2022-11-29T17:17:44.079Z,157.55
2022-11-29T17:20:12.798Z,160.45
2022-11-29T17:22:39.975Z,153.85
2022-11-29T17:25:07.189Z,150.10
2022-11-29T17:27:33.924Z,149.82
2022-11-29T17:30:00.606Z,142.40
2022-11-29T17:32:27.368Z,141.38
2022-11-29T17:34:54.257Z,138.73
2022-11-29T17:37:23.986Z,133.20
2022-11-29T17:39:50.695Z,132.85
2022-11-29T17:42:17.374Z,135.25
2022-11-29T17:44:43.986Z,138.97
2022-11-29T17:47:10.583Z,137.77
2022-11-29T17:49:37.163Z,132.60
2022-11-29T17:52:04.005Z,132.32
2022-11-29T17:54:33.033Z,128.30
2022-11-29T17:57:00.756Z,131.75
2022-11-29T17:59:27.467Z,131.32
2022-11-29T18:01:54.119Z,125.97
2022-11-29T18:04:21.380Z,113.50
2022-11-29T18:06:50.028Z,107.70
2022-11-29T18:09:18.618Z,100.88
2022-11-29T18:11:49.453Z,96.57
2022-11-29T18:14:20.175Z,94.68
2022-11-29T18:16:47.147Z,90.53
2022-11-29T18:19:19.990Z,92.67
2022-11-29T18:21:47.413Z,98.60
2022-11-29T18:24:13.996Z,99.78
2022-11-29T18:26:40.895Z,104.32
2022-11-29T18:29:08.620Z,116.00
2022-11-29T18:31:37.647Z,112.68
2022-11-29T18:34:13.022Z,133.15
2022-11-29T18:36:45.361Z,153.02
2022-11-29T18:39:19.015Z,185.82
2022-11-29T18:41:48.188Z,209.35
2022-11-29T18:44:16.684Z,211.57
2022-11-29T18:46:45.017Z,222.73
2022-11-29T18:49:15.535Z,238.18
2022-11-29T18:51:44.367Z,251.38
2022-11-29T18:54:11.423Z,247.23
2022-11-29T18:56:38.388Z,244.13
2022-11-29T18:59:08.557Z,238.40
2022-11-29T19:01:40.967Z,232.65
2022-11-29T19:04:18.972Z,236.97
2022-11-29T19:06:45.935Z,228.18
2022-11-29T19:09:15.659Z,227.37
2022-11-29T19:11:42.505Z,234.50
2022-11-29T19:14:11.764Z,238.03
2022-11-29T19:16:44.000Z,241.55
2022-11-29T19:19:11.692Z,234.37
2022-11-29T19:21:39.829Z,243.20
2022-11-29T19:24:13.424Z,232.88
2022-11-29T19:26:41.153Z,232.85
2022-11-29T19:29:07.713Z,227.02
2022-11-29T19:31:34.418Z,221.10
2022-11-29T19:34:01.091Z,213.82
2022-11-29T19:36:31.748Z,212.10
2022-11-29T19:39:01.451Z,214.45
2022-11-29T19:41:33.602Z,220.80
2022-11-29T19:44:03.113Z,219.35
2022-11-29T19:46:32.432Z,202.32
2022-11-29T19:49:00.088Z,191.95
2022-11-29T19:51:27.601Z,190.48
2022-11-29T19:53:56.315Z,184.98
2022-11-29T19:56:23.583Z,182.00
2022-11-29T19:58:51.329Z,177.02
2022-11-29T20:01:19.905Z,179.43
2022-11-29T20:03:46.696Z,187.27
2022-11-29T20:06:13.879Z,197.43
2022-11-29T20:08:41.688Z,206.23
2022-11-29T20:11:12.476Z,191.57
2022-11-29T20:13:41.203Z,193.65
2022-11-29T20:16:10.110Z,188.40
2022-11-29T20:18:39.332Z,186.85
2022-11-29T20:21:12.151Z,182.77
2022-11-29T20:23:39.860Z,169.20
2022-11-29T20:26:10.082Z,163.60
2022-11-29T20:28:36.761Z,153.63
2022-11-29T20:31:08.681Z,150.10
2022-11-29T20:33:35.746Z,141.48
2022-11-29T20:36:29.029Z,133.82
2022-11-29T20:39:07.184Z,126.95
2022-11-29T20:41:59.345Z,117.82
2022-11-29T20:44:53.656Z,107.90
2022-11-29T20:47:23.286Z,107.35
2022-11-29T20:49:50.914Z,107.18
2022-11-29T20:52:32.914Z,111.55
2022-11-29T20:54:59.580Z,110.53
2022-11-29T20:57:26.283Z,108.97
2022-11-29T20:59:52.920Z,113.78
2022-11-29T21:02:19.988Z,114.93
2022-11-29T21:04:46.872Z,123.05
2022-11-29T21:07:13.557Z,130.73
2022-11-29T21:09:48.091Z,140.55
2022-11-29T21:12:15.207Z,146.40
2022-11-29T21:14:42.895Z,151.52
2022-11-29T21:17:10.339Z,161.73
2022-11-29T21:19:37.253Z,173.32
2022-11-29T21:22:27.697Z,175.27
2022-11-29T21:25:32.677Z,183.40
2022-11-29T21:28:00.488Z,196.57
2022-11-29T21:30:27.324Z,203.73
2022-11-29T21:32:54.208Z,225.43
2022-11-29T21:35:20.764Z,239.43
2022-11-29T21:37:47.642Z,246.55
2022-11-29T21:40:15.101Z,263.30
2022-11-29T21:42:41.871Z,271.77
2022-11-29T21:45:14.934Z,279.13
2022-11-29T21:47:43.190Z,297.50
2022-11-29T21:50:10.752Z,302.42
2022-11-29T21:52:37.382Z,322.40
2022-11-29T21:55:04.254Z,321.92
2022-11-29T21:57:30.852Z,329.77
2022-11-29T21:59:57.443Z,331.65
2022-11-29T22:02:24.132Z,331.83
2022-11-29T22:04:50.748Z,337.42
2022-11-29T22:07:17.506Z,337.52
2022-11-29T22:09:44.076Z,345.10
2022-11-29T22:12:32.559Z,347.35
2022-11-29T22:14:57.333Z,346.30
2022-11-29T22:17:23.885Z,356.88
2022-11-29T22:19:50.468Z,355.80
2022-11-29T22:22:17.322Z,356.42
2022-11-29T22:24:44.184Z,355.63
2022-11-29T22:27:12.310Z,349.60
2022-11-29T22:29:39.012Z,347.40
2022-11-29T22:32:06.183Z,342.53
2022-11-29T22:34:32.904Z,345.90
2022-11-29T22:36:59.702Z,352.42
2022-11-29T22:39:26.344Z,357.95
2022-11-29T22:41:54.998Z,367.50
2022-11-29T22:44:23.570Z,377.95
2022-11-29T22:46:51.025Z,393.08
2022-11-29T22:49:17.718Z,403.98
2022-11-29T22:51:44.449Z,418.10
2022-11-29T22:54:11.732Z,422.05
2022-11-29T22:56:40.339Z,433.83
2022-11-29T22:59:07.271Z,425.52
2022-11-29T23:01:35.676Z,425.27
2022-11-29T23:04:04.845Z,430.80
2022-11-29T23:06:42.667Z,428.30
2022-11-29T23:09:22.025Z,431.75
2022-11-29T23:11:53.950Z,439.02
2022-11-29T23:14:21.992Z,442.35
2022-11-29T23:16:48.793Z,422.73
2022-11-29T23:19:16.178Z,435.83
2022-11-29T23:21:45.401Z,446.23
2022-11-29T23:24:12.828Z,446.42
2022-11-29T23:26:42.468Z,443.98
2022-11-29T23:29:12.072Z,448.48
2022-11-29T23:31:39.404Z,445.13
2022-11-29T23:34:06.224Z,460.08
2022-11-29T23:36:32.938Z,460.45
2022-11-29T23:38:59.519Z,467.95
2022-11-29T23:41:26.088Z,468.93
2022-11-29T23:43:52.648Z,467.02
2022-11-29T23:46:22.173Z,479.48
2022-11-29T23:48:48.812Z,480.88
2022-11-29T23:51:16.297Z,488.90
2022-11-29T23:53:43.462Z,488.92
2022-11-29T23:56:12.480Z,489.00
2022-11-29T23:58:39.264Z,489.33
